sensor_id;sensor_type;location;lat;lon;timestamp;P1;durP1;ratioP1;P2;durP2;ratioP2
6019;SDS011;3038;51.122;6.840;2023-03-07T00:02:18;10.90;;;7.60;;
6019;SDS011;3038;51.122;6.840;2023-03-07T00:04:44;13.97;;;8.43;;
6019;SDS011;3038;51.122;6.840;2023-03-07T00:07:10;13.37;;;10.80;;
6019;SDS011;3038;51.122;6.840;2023-03-07T00:09:35;10.33;;;7.70;;
6019;SDS011;3038;51.122;6.840;2023-03-07T00:12:01;14.30;;;9.70;;
6019;SDS011;3038;51.122;6.840;2023-03-07T00:14:26;9.13;;;7.03;;
6019;SDS011;3038;51.122;6.840;2023-03-07T00:16:52;7.10;;;6.27;;
6019;SDS011;3038;51.122;6.840;2023-03-07T00:19:17;10.30;;;6.30;;
6019;SDS011;3038;51.122;6.840;2023-03-07T00:21:43;14.03;;;10.07;;
6019;SDS011;3038;51.122;6.840;2023-03-07T00:24:09;9.43;;;7.80;;
6019;SDS011;3038;51.122;6.840;2023-03-07T00:26:34;15.77;;;10.07;;
6019;SDS011;3038;51.122;6.840;2023-03-07T00:29:04;10.00;;;8.13;;
6019;SDS011;3038;51.122;6.840;2023-03-07T00:31:31;10.47;;;9.23;;
6019;SDS011;3038;51.122;6.840;2023-03-07T00:33:56;8.93;;;6.43;;
6019;SDS011;3038;51.122;6.840;2023-03-07T00:36:22;10.37;;;7.03;;
6019;SDS011;3038;51.122;6.840;2023-03-07T00:38:48;13.93;;;9.37;;
6019;SDS011;3038;51.122;6.840;2023-03-07T00:41:16;11.10;;;7.93;;
6019;SDS011;3038;51.122;6.840;2023-03-07T00:43:43;10.63;;;8.13;;
6019;SDS011;3038;51.122;6.840;2023-03-07T00:46:11;9.13;;;7.33;;
6019;SDS011;3038;51.122;6.840;2023-03-07T00:48:38;12.87;;;10.60;;
6019;SDS011;3038;51.122;6.840;2023-03-07T00:51:04;10.93;;;8.13;;
6019;SDS011;3038;51.122;6.840;2023-03-07T00:53:32;9.37;;;8.17;;
6019;SDS011;3038;51.122;6.840;2023-03-07T00:55:59;12.37;;;9.77;;
6019;SDS011;3038;51.122;6.840;2023-03-07T00:58:29;11.20;;;7.93;;
6019;SDS011;3038;51.122;6.840;2023-03-07T01:00:57;8.87;;;7.97;;
6019;SDS011;3038;51.122;6.840;2023-03-07T01:03:23;8.37;;;6.60;;
6019;SDS011;3038;51.122;6.840;2023-03-07T01:05:49;7.67;;;6.37;;
6019;SDS011;3038;51.122;6.840;2023-03-07T01:08:14;9.80;;;7.37;;
6019;SDS011;3038;51.122;6.840;2023-03-07T01:10:41;12.40;;;10.33;;
6019;SDS011;3038;51.122;6.840;2023-03-07T01:13:07;11.40;;;9.23;;
6019;SDS011;3038;51.122;6.840;2023-03-07T01:15:33;9.47;;;7.20;;
6019;SDS011;3038;51.122;6.840;2023-03-07T01:17:59;9.37;;;7.93;;
6019;SDS011;3038;51.122;6.840;2023-03-07T01:20:25;11.83;;;7.97;;
6019;SDS011;3038;51.122;6.840;2023-03-07T01:22:50;7.80;;;7.00;;
6019;SDS011;3038;51.122;6.840;2023-03-07T01:25:16;8.43;;;6.50;;
6019;SDS011;3038;51.122;6.840;2023-03-07T01:27:42;8.73;;;6.90;;
6019;SDS011;3038;51.122;6.840;2023-03-07T01:30:08;8.87;;;7.53;;
6019;SDS011;3038;51.122;6.840;2023-03-07T01:32:34;8.33;;;6.73;;
6019;SDS011;3038;51.122;6.840;2023-03-07T01:34:59;7.97;;;6.27;;
6019;SDS011;3038;51.122;6.840;2023-03-07T01:37:25;6.70;;;6.10;;
6019;SDS011;3038;51.122;6.840;2023-03-07T01:39:51;7.83;;;6.23;;
6019;SDS011;3038;51.122;6.840;2023-03-07T01:42:17;7.27;;;6.47;;
6019;SDS011;3038;51.122;6.840;2023-03-07T01:47:29;5.37;;;4.87;;
6019;SDS011;3038;51.122;6.840;2023-03-07T01:49:55;7.57;;;6.20;;
6019;SDS011;3038;51.122;6.840;2023-03-07T01:55:01;5.87;;;5.27;;
6019;SDS011;3038;51.122;6.840;2023-03-07T01:57:34;8.77;;;7.87;;
6019;SDS011;3038;51.122;6.840;2023-03-07T02:00:03;8.40;;;7.03;;
6019;SDS011;3038;51.122;6.840;2023-03-07T02:02:34;6.80;;;5.87;;
6019;SDS011;3038;51.122;6.840;2023-03-07T02:08:02;5.43;;;4.60;;
6019;SDS011;3038;51.122;6.840;2023-03-07T02:10:31;6.73;;;6.07;;
6019;SDS011;3038;51.122;6.840;2023-03-07T02:12:57;5.93;;;5.43;;
6019;SDS011;3038;51.122;6.840;2023-03-07T02:15:23;6.20;;;4.30;;
6019;SDS011;3038;51.122;6.840;2023-03-07T02:17:48;7.93;;;6.77;;
6019;SDS011;3038;51.122;6.840;2023-03-07T02:23:04;5.00;;;4.40;;
6019;SDS011;3038;51.122;6.840;2023-03-07T02:28:09;5.57;;;4.83;;
6019;SDS011;3038;51.122;6.840;2023-03-07T02:30:37;6.67;;;5.97;;
6019;SDS011;3038;51.122;6.840;2023-03-07T02:33:16;9.30;;;6.87;;
6019;SDS011;3038;51.122;6.840;2023-03-07T02:35:41;5.17;;;4.77;;
6019;SDS011;3038;51.122;6.840;2023-03-07T02:38:06;8.10;;;6.70;;
6019;SDS011;3038;51.122;6.840;2023-03-07T02:40:32;7.20;;;6.30;;
6019;SDS011;3038;51.122;6.840;2023-03-07T02:42:58;5.20;;;4.40;;
6019;SDS011;3038;51.122;6.840;2023-03-07T02:45:29;6.70;;;5.93;;
6019;SDS011;3038;51.122;6.840;2023-03-07T02:47:55;5.53;;;4.57;;
6019;SDS011;3038;51.122;6.840;2023-03-07T02:50:20;9.30;;;7.40;;
6019;SDS011;3038;51.122;6.840;2023-03-07T02:52:45;12.07;;;8.20;;
6019;SDS011;3038;51.122;6.840;2023-03-07T02:55:11;7.07;;;5.80;;
6019;SDS011;3038;51.122;6.840;2023-03-07T02:57:36;9.63;;;7.43;;
6019;SDS011;3038;51.122;6.840;2023-03-07T03:00:03;6.77;;;6.00;;
6019;SDS011;3038;51.122;6.840;2023-03-07T03:02:31;8.03;;;7.00;;
6019;SDS011;3038;51.122;6.840;2023-03-07T03:04:56;12.73;;;9.17;;
6019;SDS011;3038;51.122;6.840;2023-03-07T03:07:22;10.97;;;9.50;;
6019;SDS011;3038;51.122;6.840;2023-03-07T03:09:47;9.70;;;8.70;;
6019;SDS011;3038;51.122;6.840;2023-03-07T03:12:12;8.33;;;7.50;;
6019;SDS011;3038;51.122;6.840;2023-03-07T03:14:38;10.90;;;8.70;;
6019;SDS011;3038;51.122;6.840;2023-03-07T03:17:03;12.80;;;7.63;;
6019;SDS011;3038;51.122;6.840;2023-03-07T03:19:29;10.73;;;8.00;;
6019;SDS011;3038;51.122;6.840;2023-03-07T03:21:54;6.00;;;4.93;;
6019;SDS011;3038;51.122;6.840;2023-03-07T03:24:20;8.17;;;6.83;;
6019;SDS011;3038;51.122;6.840;2023-03-07T03:26:46;6.33;;;5.40;;
6019;SDS011;3038;51.122;6.840;2023-03-07T03:29:11;6.33;;;4.87;;
6019;SDS011;3038;51.122;6.840;2023-03-07T03:31:36;8.00;;;6.23;;
6019;SDS011;3038;51.122;6.840;2023-03-07T03:34:02;6.87;;;4.70;;
6019;SDS011;3038;51.122;6.840;2023-03-07T03:36:29;7.27;;;5.90;;
6019;SDS011;3038;51.122;6.840;2023-03-07T03:38:55;7.57;;;6.10;;
6019;SDS011;3038;51.122;6.840;2023-03-07T03:41:21;9.30;;;6.93;;
6019;SDS011;3038;51.122;6.840;2023-03-07T03:43:47;7.30;;;6.23;;
6019;SDS011;3038;51.122;6.840;2023-03-07T03:46:13;7.00;;;6.20;;
6019;SDS011;3038;51.122;6.840;2023-03-07T03:48:39;7.50;;;5.77;;
6019;SDS011;3038;51.122;6.840;2023-03-07T03:53:35;10.57;;;7.70;;
6019;SDS011;3038;51.122;6.840;2023-03-07T03:56:09;7.33;;;6.60;;
6019;SDS011;3038;51.122;6.840;2023-03-07T03:58:36;10.00;;;8.30;;
6019;SDS011;3038;51.122;6.840;2023-03-07T04:01:06;9.93;;;8.50;;
6019;SDS011;3038;51.122;6.840;2023-03-07T04:03:34;6.70;;;5.57;;
6019;SDS011;3038;51.122;6.840;2023-03-07T04:06:02;10.00;;;6.37;;
6019;SDS011;3038;51.122;6.840;2023-03-07T04:08:29;7.23;;;6.53;;
6019;SDS011;3038;51.122;6.840;2023-03-07T04:10:55;8.97;;;8.00;;
6019;SDS011;3038;51.122;6.840;2023-03-07T04:13:20;11.77;;;8.00;;
6019;SDS011;3038;51.122;6.840;2023-03-07T04:15:46;5.80;;;5.20;;
6019;SDS011;3038;51.122;6.840;2023-03-07T04:18:11;4.90;;;3.80;;
6019;SDS011;3038;51.122;6.840;2023-03-07T04:20:37;10.83;;;8.83;;
6019;SDS011;3038;51.122;6.840;2023-03-07T04:23:02;7.93;;;6.37;;
6019;SDS011;3038;51.122;6.840;2023-03-07T04:25:27;11.07;;;8.37;;
6019;SDS011;3038;51.122;6.840;2023-03-07T04:27:53;6.27;;;5.67;;
6019;SDS011;3038;51.122;6.840;2023-03-07T04:30:18;15.37;;;9.40;;
6019;SDS011;3038;51.122;6.840;2023-03-07T04:32:44;12.50;;;9.50;;
6019;SDS011;3038;51.122;6.840;2023-03-07T04:35:09;12.20;;;9.60;;
6019;SDS011;3038;51.122;6.840;2023-03-07T04:37:34;14.00;;;9.17;;
6019;SDS011;3038;51.122;6.840;2023-03-07T04:40:00;18.83;;;10.40;;
6019;SDS011;3038;51.122;6.840;2023-03-07T04:42:25;12.57;;;10.50;;
6019;SDS011;3038;51.122;6.840;2023-03-07T04:44:50;11.30;;;9.63;;
6019;SDS011;3038;51.122;6.840;2023-03-07T04:47:16;12.10;;;8.00;;
6019;SDS011;3038;51.122;6.840;2023-03-07T04:49:41;7.90;;;7.13;;
6019;SDS011;3038;51.122;6.840;2023-03-07T04:52:06;15.50;;;11.07;;
6019;SDS011;3038;51.122;6.840;2023-03-07T04:54:32;12.30;;;9.90;;
6019;SDS011;3038;51.122;6.840;2023-03-07T04:56:57;11.77;;;9.60;;
6019;SDS011;3038;51.122;6.840;2023-03-07T04:59:23;13.67;;;10.90;;
6019;SDS011;3038;51.122;6.840;2023-03-07T05:01:48;8.77;;;7.63;;
6019;SDS011;3038;51.122;6.840;2023-03-07T05:04:16;10.80;;;8.40;;
6019;SDS011;3038;51.122;6.840;2023-03-07T05:06:41;11.47;;;9.93;;
6019;SDS011;3038;51.122;6.840;2023-03-07T05:09:06;14.10;;;11.53;;
6019;SDS011;3038;51.122;6.840;2023-03-07T05:11:32;10.47;;;8.70;;
6019;SDS011;3038;51.122;6.840;2023-03-07T05:13:57;11.30;;;9.13;;
6019;SDS011;3038;51.122;6.840;2023-03-07T05:16:22;10.33;;;8.93;;
6019;SDS011;3038;51.122;6.840;2023-03-07T05:18:49;13.53;;;9.73;;
6019;SDS011;3038;51.122;6.840;2023-03-07T05:21:14;10.97;;;7.00;;
6019;SDS011;3038;51.122;6.840;2023-03-07T05:23:40;10.10;;;8.37;;
6019;SDS011;3038;51.122;6.840;2023-03-07T05:26:05;10.67;;;8.87;;
6019;SDS011;3038;51.122;6.840;2023-03-07T05:28:30;10.30;;;8.60;;
6019;SDS011;3038;51.122;6.840;2023-03-07T05:30:56;8.03;;;7.23;;
6019;SDS011;3038;51.122;6.840;2023-03-07T05:33:21;13.73;;;11.20;;
6019;SDS011;3038;51.122;6.840;2023-03-07T05:35:46;13.33;;;11.40;;
6019;SDS011;3038;51.122;6.840;2023-03-07T05:38:12;13.83;;;11.77;;
6019;SDS011;3038;51.122;6.840;2023-03-07T05:40:38;13.73;;;11.47;;
6019;SDS011;3038;51.122;6.840;2023-03-07T05:43:04;18.90;;;11.30;;
6019;SDS011;3038;51.122;6.840;2023-03-07T05:45:29;13.00;;;11.60;;
6019;SDS011;3038;51.122;6.840;2023-03-07T05:47:55;14.40;;;12.57;;
6019;SDS011;3038;51.122;6.840;2023-03-07T05:50:20;12.93;;;8.43;;
6019;SDS011;3038;51.122;6.840;2023-03-07T05:52:46;10.63;;;8.53;;
6019;SDS011;3038;51.122;6.840;2023-03-07T05:55:11;10.83;;;9.63;;
6019;SDS011;3038;51.122;6.840;2023-03-07T05:57:37;13.77;;;9.80;;
6019;SDS011;3038;51.122;6.840;2023-03-07T06:00:03;12.80;;;9.80;;
6019;SDS011;3038;51.122;6.840;2023-03-07T06:02:30;10.37;;;9.13;;
6019;SDS011;3038;51.122;6.840;2023-03-07T06:04:55;13.47;;;10.77;;
6019;SDS011;3038;51.122;6.840;2023-03-07T06:07:21;8.57;;;6.90;;
6019;SDS011;3038;51.122;6.840;2023-03-07T06:09:46;14.60;;;11.40;;
6019;SDS011;3038;51.122;6.840;2023-03-07T06:12:11;9.83;;;7.23;;
6019;SDS011;3038;51.122;6.840;2023-03-07T06:14:37;8.57;;;7.77;;
6019;SDS011;3038;51.122;6.840;2023-03-07T06:17:03;10.80;;;9.30;;
6019;SDS011;3038;51.122;6.840;2023-03-07T06:19:28;10.87;;;9.13;;
6019;SDS011;3038;51.122;6.840;2023-03-07T06:21:54;12.50;;;9.70;;
6019;SDS011;3038;51.122;6.840;2023-03-07T06:24:20;13.53;;;9.60;;
6019;SDS011;3038;51.122;6.840;2023-03-07T06:26:45;13.53;;;11.73;;
6019;SDS011;3038;51.122;6.840;2023-03-07T06:29:10;19.87;;;10.93;;
6019;SDS011;3038;51.122;6.840;2023-03-07T06:31:36;10.73;;;8.20;;
6019;SDS011;3038;51.122;6.840;2023-03-07T06:34:01;14.97;;;11.30;;
6019;SDS011;3038;51.122;6.840;2023-03-07T06:36:27;13.40;;;11.70;;
6019;SDS011;3038;51.122;6.840;2023-03-07T06:38:52;11.73;;;9.47;;
6019;SDS011;3038;51.122;6.840;2023-03-07T06:41:17;10.97;;;9.50;;
6019;SDS011;3038;51.122;6.840;2023-03-07T06:43:43;18.00;;;12.77;;
6019;SDS011;3038;51.122;6.840;2023-03-07T06:46:08;12.33;;;8.93;;
6019;SDS011;3038;51.122;6.840;2023-03-07T06:48:33;14.70;;;10.43;;
6019;SDS011;3038;51.122;6.840;2023-03-07T06:50:59;10.00;;;8.57;;
6019;SDS011;3038;51.122;6.840;2023-03-07T06:53:29;8.87;;;7.73;;
6019;SDS011;3038;51.122;6.840;2023-03-07T06:55:55;15.63;;;12.30;;
6019;SDS011;3038;51.122;6.840;2023-03-07T06:58:20;12.40;;;9.40;;
6019;SDS011;3038;51.122;6.840;2023-03-07T07:00:45;15.90;;;12.17;;
6019;SDS011;3038;51.122;6.840;2023-03-07T07:03:11;14.90;;;11.93;;
6019;SDS011;3038;51.122;6.840;2023-03-07T07:05:38;11.57;;;9.03;;
6019;SDS011;3038;51.122;6.840;2023-03-07T07:08:03;11.13;;;9.53;;
6019;SDS011;3038;51.122;6.840;2023-03-07T07:10:29;13.20;;;9.13;;
6019;SDS011;3038;51.122;6.840;2023-03-07T07:12:54;12.77;;;10.67;;
6019;SDS011;3038;51.122;6.840;2023-03-07T07:15:21;16.10;;;9.40;;
6019;SDS011;3038;51.122;6.840;2023-03-07T07:17:47;11.57;;;10.27;;
6019;SDS011;3038;51.122;6.840;2023-03-07T07:20:14;13.23;;;9.00;;
6019;SDS011;3038;51.122;6.840;2023-03-07T07:22:39;13.87;;;11.03;;
6019;SDS011;3038;51.122;6.840;2023-03-07T07:25:04;10.43;;;7.63;;
6019;SDS011;3038;51.122;6.840;2023-03-07T07:27:30;14.10;;;7.40;;
6019;SDS011;3038;51.122;6.840;2023-03-07T07:29:55;9.20;;;7.10;;
6019;SDS011;3038;51.122;6.840;2023-03-07T07:32:21;12.60;;;9.43;;
6019;SDS011;3038;51.122;6.840;2023-03-07T07:34:46;16.30;;;11.37;;
6019;SDS011;3038;51.122;6.840;2023-03-07T07:37:11;11.93;;;7.93;;
6019;SDS011;3038;51.122;6.840;2023-03-07T07:39:37;14.50;;;11.47;;
6019;SDS011;3038;51.122;6.840;2023-03-07T07:42:05;13.83;;;11.03;;
6019;SDS011;3038;51.122;6.840;2023-03-07T07:44:30;10.53;;;8.50;;
6019;SDS011;3038;51.122;6.840;2023-03-07T07:46:56;9.47;;;7.53;;
6019;SDS011;3038;51.122;6.840;2023-03-07T07:49:21;9.33;;;7.03;;
6019;SDS011;3038;51.122;6.840;2023-03-07T07:51:47;11.43;;;9.10;;
6019;SDS011;3038;51.122;6.840;2023-03-07T07:54:12;11.00;;;8.50;;
6019;SDS011;3038;51.122;6.840;2023-03-07T07:56:38;12.97;;;9.40;;
6019;SDS011;3038;51.122;6.840;2023-03-07T07:59:04;7.87;;;6.43;;
6019;SDS011;3038;51.122;6.840;2023-03-07T08:01:29;11.10;;;8.47;;
6019;SDS011;3038;51.122;6.840;2023-03-07T08:03:54;6.30;;;5.70;;
6019;SDS011;3038;51.122;6.840;2023-03-07T08:06:20;12.00;;;10.43;;
6019;SDS011;3038;51.122;6.840;2023-03-07T08:08:50;9.47;;;8.47;;
6019;SDS011;3038;51.122;6.840;2023-03-07T08:11:16;8.23;;;6.60;;
6019;SDS011;3038;51.122;6.840;2023-03-07T08:13:43;15.83;;;10.60;;
6019;SDS011;3038;51.122;6.840;2023-03-07T08:16:12;12.33;;;9.77;;
6019;SDS011;3038;51.122;6.840;2023-03-07T08:18:40;9.80;;;7.50;;
6019;SDS011;3038;51.122;6.840;2023-03-07T08:21:06;7.73;;;6.90;;
6019;SDS011;3038;51.122;6.840;2023-03-07T08:23:33;14.83;;;9.27;;
6019;SDS011;3038;51.122;6.840;2023-03-07T08:26:02;9.90;;;7.27;;
6019;SDS011;3038;51.122;6.840;2023-03-07T08:28:29;10.70;;;7.10;;
6019;SDS011;3038;51.122;6.840;2023-03-07T08:30:55;11.60;;;7.73;;
6019;SDS011;3038;51.122;6.840;2023-03-07T08:33:20;9.00;;;6.80;;
6019;SDS011;3038;51.122;6.840;2023-03-07T08:35:45;12.20;;;7.60;;
6019;SDS011;3038;51.122;6.840;2023-03-07T08:38:11;10.30;;;8.67;;
6019;SDS011;3038;51.122;6.840;2023-03-07T08:40:36;8.40;;;7.60;;
6019;SDS011;3038;51.122;6.840;2023-03-07T08:43:01;6.27;;;5.67;;
6019;SDS011;3038;51.122;6.840;2023-03-07T08:45:27;9.33;;;8.27;;
6019;SDS011;3038;51.122;6.840;2023-03-07T08:47:53;8.43;;;6.70;;
6019;SDS011;3038;51.122;6.840;2023-03-07T08:50:20;9.10;;;7.03;;
6019;SDS011;3038;51.122;6.840;2023-03-07T08:52:47;7.47;;;6.03;;
6019;SDS011;3038;51.122;6.840;2023-03-07T08:55:12;8.90;;;5.90;;
6019;SDS011;3038;51.122;6.840;2023-03-07T08:57:39;9.13;;;7.03;;
6019;SDS011;3038;51.122;6.840;2023-03-07T09:00:05;7.50;;;6.00;;
6019;SDS011;3038;51.122;6.840;2023-03-07T09:02:33;12.03;;;7.90;;
6019;SDS011;3038;51.122;6.840;2023-03-07T09:04:58;8.13;;;5.30;;
6019;SDS011;3038;51.122;6.840;2023-03-07T09:07:24;7.77;;;7.00;;
6019;SDS011;3038;51.122;6.840;2023-03-07T09:09:49;7.90;;;6.93;;
6019;SDS011;3038;51.122;6.840;2023-03-07T09:12:15;7.53;;;5.43;;
6019;SDS011;3038;51.122;6.840;2023-03-07T09:14:40;7.27;;;6.57;;
6019;SDS011;3038;51.122;6.840;2023-03-07T09:17:05;9.10;;;8.17;;
6019;SDS011;3038;51.122;6.840;2023-03-07T09:19:31;6.97;;;6.27;;
6019;SDS011;3038;51.122;6.840;2023-03-07T09:21:56;7.47;;;6.30;;
6019;SDS011;3038;51.122;6.840;2023-03-07T09:24:22;8.00;;;5.73;;
6019;SDS011;3038;51.122;6.840;2023-03-07T09:26:47;9.70;;;4.97;;
6019;SDS011;3038;51.122;6.840;2023-03-07T09:29:12;8.70;;;6.30;;
6019;SDS011;3038;51.122;6.840;2023-03-07T09:31:38;5.80;;;5.30;;
6019;SDS011;3038;51.122;6.840;2023-03-07T09:34:05;6.43;;;4.50;;
6019;SDS011;3038;51.122;6.840;2023-03-07T09:36:30;11.97;;;8.10;;
6019;SDS011;3038;51.122;6.840;2023-03-07T09:38:56;5.40;;;4.07;;
6019;SDS011;3038;51.122;6.840;2023-03-07T09:44:15;8.40;;;5.67;;
6019;SDS011;3038;51.122;6.840;2023-03-07T09:47:12;8.97;;;7.93;;
6019;SDS011;3038;51.122;6.840;2023-03-07T09:49:49;6.17;;;5.13;;
6019;SDS011;3038;51.122;6.840;2023-03-07T09:52:16;7.40;;;4.97;;
6019;SDS011;3038;51.122;6.840;2023-03-07T09:54:45;6.13;;;4.93;;
6019;SDS011;3038;51.122;6.840;2023-03-07T09:57:21;10.07;;;7.17;;
6019;SDS011;3038;51.122;6.840;2023-03-07T09:59:50;10.93;;;8.60;;
6019;SDS011;3038;51.122;6.840;2023-03-07T10:02:22;10.00;;;7.60;;
6019;SDS011;3038;51.122;6.840;2023-03-07T10:07:32;7.87;;;5.80;;
6019;SDS011;3038;51.122;6.840;2023-03-07T10:10:00;10.17;;;6.20;;
6019;SDS011;3038;51.122;6.840;2023-03-07T10:23:03;11.47;;;8.83;;
6019;SDS011;3038;51.122;6.840;2023-03-07T10:25:31;10.50;;;8.80;;
6019;SDS011;3038;51.122;6.840;2023-03-07T10:28:08;8.30;;;7.00;;
6019;SDS011;3038;51.122;6.840;2023-03-07T10:30:42;5.63;;;5.00;;
6019;SDS011;3038;51.122;6.840;2023-03-07T10:33:13;7.50;;;5.30;;
6019;SDS011;3038;51.122;6.840;2023-03-07T10:35:42;4.33;;;3.80;;
6019;SDS011;3038;51.122;6.840;2023-03-07T10:38:15;4.30;;;2.47;;
6019;SDS011;3038;51.122;6.840;2023-03-07T10:40:53;3.07;;;2.77;;
6019;SDS011;3038;51.122;6.840;2023-03-07T10:43:31;3.80;;;3.40;;
6019;SDS011;3038;51.122;6.840;2023-03-07T10:46:14;3.90;;;3.60;;
6019;SDS011;3038;51.122;6.840;2023-03-07T10:48:45;3.50;;;3.20;;
6019;SDS011;3038;51.122;6.840;2023-03-07T10:54:04;3.30;;;2.93;;
6019;SDS011;3038;51.122;6.840;2023-03-07T10:56:37;6.90;;;3.40;;
6019;SDS011;3038;51.122;6.840;2023-03-07T10:59:06;3.93;;;3.53;;
6019;SDS011;3038;51.122;6.840;2023-03-07T11:01:33;3.20;;;3.00;;
6019;SDS011;3038;51.122;6.840;2023-03-07T11:04:09;3.00;;;2.20;;
6019;SDS011;3038;51.122;6.840;2023-03-07T11:06:57;2.50;;;2.30;;
6019;SDS011;3038;51.122;6.840;2023-03-07T11:09:26;2.30;;;2.10;;
6019;SDS011;3038;51.122;6.840;2023-03-07T11:12:09;2.20;;;2.00;;
6019;SDS011;3038;51.122;6.840;2023-03-07T11:14:53;3.93;;;2.27;;
6019;SDS011;3038;51.122;6.840;2023-03-07T11:17:45;4.17;;;2.37;;
6019;SDS011;3038;51.122;6.840;2023-03-07T11:22:45;4.00;;;2.60;;
6019;SDS011;3038;51.122;6.840;2023-03-07T11:25:20;2.30;;;2.10;;
6019;SDS011;3038;51.122;6.840;2023-03-07T11:27:51;2.83;;;2.53;;
6019;SDS011;3038;51.122;6.840;2023-03-07T11:30:22;3.03;;;2.73;;
6019;SDS011;3038;51.122;6.840;2023-03-07T11:33:00;3.83;;;3.10;;
6019;SDS011;3038;51.122;6.840;2023-03-07T11:36:03;3.10;;;2.60;;
6019;SDS011;3038;51.122;6.840;2023-03-07T11:38:37;4.30;;;3.90;;
6019;SDS011;3038;51.122;6.840;2023-03-07T11:41:14;3.97;;;3.60;;
6019;SDS011;3038;51.122;6.840;2023-03-07T11:43:49;2.67;;;2.13;;
6019;SDS011;3038;51.122;6.840;2023-03-07T11:49:03;2.50;;;2.30;;
6019;SDS011;3038;51.122;6.840;2023-03-07T11:51:41;2.70;;;2.50;;
6019;SDS011;3038;51.122;6.840;2023-03-07T11:56:46;3.00;;;2.70;;
6019;SDS011;3038;51.122;6.840;2023-03-07T11:59:32;2.87;;;2.63;;
6019;SDS011;3038;51.122;6.840;2023-03-07T12:02:28;2.87;;;2.40;;
6019;SDS011;3038;51.122;6.840;2023-03-07T12:07:50;4.40;;;3.20;;
6019;SDS011;3038;51.122;6.840;2023-03-07T12:14:08;6.00;;;3.87;;
6019;SDS011;3038;51.122;6.840;2023-03-07T12:24:22;4.40;;;3.63;;
6019;SDS011;3038;51.122;6.840;2023-03-07T12:29:46;3.23;;;2.90;;
6019;SDS011;3038;51.122;6.840;2023-03-07T12:32:20;3.13;;;2.83;;
6019;SDS011;3038;51.122;6.840;2023-03-07T12:34:50;3.33;;;3.03;;
6019;SDS011;3038;51.122;6.840;2023-03-07T12:37:34;3.73;;;3.37;;
6019;SDS011;3038;51.122;6.840;2023-03-07T12:40:19;3.37;;;3.07;;
6019;SDS011;3038;51.122;6.840;2023-03-07T12:42:49;3.33;;;2.93;;
6019;SDS011;3038;51.122;6.840;2023-03-07T12:45:27;3.13;;;2.83;;
6019;SDS011;3038;51.122;6.840;2023-03-07T12:50:57;4.27;;;3.87;;
6019;SDS011;3038;51.122;6.840;2023-03-07T12:56:21;5.70;;;5.10;;
6019;SDS011;3038;51.122;6.840;2023-03-07T12:58:59;5.60;;;4.43;;
6019;SDS011;3038;51.122;6.840;2023-03-07T13:01:35;5.60;;;4.70;;
6019;SDS011;3038;51.122;6.840;2023-03-07T13:06:41;7.10;;;5.80;;
6019;SDS011;3038;51.122;6.840;2023-03-07T13:09:26;6.80;;;6.10;;
6019;SDS011;3038;51.122;6.840;2023-03-07T13:12:20;7.43;;;5.20;;
6019;SDS011;3038;51.122;6.840;2023-03-07T13:15:44;6.37;;;5.77;;
6019;SDS011;3038;51.122;6.840;2023-03-07T13:18:00;8.17;;;6.50;;
6019;SDS011;3038;51.122;6.840;2023-03-07T13:28:00;7.37;;;6.53;;
6019;SDS011;3038;51.122;6.840;2023-03-07T13:30:30;7.33;;;6.23;;
6019;SDS011;3038;51.122;6.840;2023-03-07T13:32:58;8.53;;;7.63;;
6019;SDS011;3038;51.122;6.840;2023-03-07T13:43:54;7.40;;;6.70;;
6019;SDS011;3038;51.122;6.840;2023-03-07T13:53:16;8.63;;;7.60;;
6019;SDS011;3038;51.122;6.840;2023-03-07T13:56:00;7.63;;;6.83;;
6019;SDS011;3038;51.122;6.840;2023-03-07T13:59:01;7.50;;;6.60;;
6019;SDS011;3038;51.122;6.840;2023-03-07T14:01:34;7.77;;;6.87;;
6019;SDS011;3038;51.122;6.840;2023-03-07T14:04:23;6.00;;;5.40;;
6019;SDS011;3038;51.122;6.840;2023-03-07T14:07:00;6.43;;;5.80;;
6019;SDS011;3038;51.122;6.840;2023-03-07T14:12:12;7.70;;;6.87;;
6019;SDS011;3038;51.122;6.840;2023-03-07T14:23:09;7.23;;;6.50;;
6019;SDS011;3038;51.122;6.840;2023-03-07T14:26:18;7.90;;;6.03;;
6019;SDS011;3038;51.122;6.840;2023-03-07T14:28:49;7.87;;;7.10;;
6019;SDS011;3038;51.122;6.840;2023-03-07T14:31:23;7.83;;;7.03;;
6019;SDS011;3038;51.122;6.840;2023-03-07T14:33:53;8.13;;;7.33;;
6019;SDS011;3038;51.122;6.840;2023-03-07T14:36:20;10.87;;;8.20;;
6019;SDS011;3038;51.122;6.840;2023-03-07T14:38:48;8.00;;;7.27;;
6019;SDS011;3038;51.122;6.840;2023-03-07T14:51:51;12.40;;;11.10;;
6019;SDS011;3038;51.122;6.840;2023-03-07T14:54:18;13.10;;;9.87;;
6019;SDS011;3038;51.122;6.840;2023-03-07T14:56:49;9.60;;;8.00;;
6019;SDS011;3038;51.122;6.840;2023-03-07T14:59:17;9.23;;;8.10;;
6019;SDS011;3038;51.122;6.840;2023-03-07T15:01:42;10.63;;;9.60;;
6019;SDS011;3038;51.122;6.840;2023-03-07T15:06:56;9.87;;;8.87;;
6019;SDS011;3038;51.122;6.840;2023-03-07T15:09:24;9.13;;;8.20;;
6019;SDS011;3038;51.122;6.840;2023-03-07T15:15:00;8.23;;;7.43;;
6019;SDS011;3038;51.122;6.840;2023-03-07T15:20:18;8.70;;;6.70;;
6019;SDS011;3038;51.122;6.840;2023-03-07T15:22:45;8.80;;;7.33;;
6019;SDS011;3038;51.122;6.840;2023-03-07T15:25:18;9.50;;;8.50;;
6019;SDS011;3038;51.122;6.840;2023-03-07T15:27:46;8.37;;;7.43;;
6019;SDS011;3038;51.122;6.840;2023-03-07T15:30:25;9.93;;;7.30;;
6019;SDS011;3038;51.122;6.840;2023-03-07T15:35:33;9.07;;;6.30;;
6019;SDS011;3038;51.122;6.840;2023-03-07T15:38:05;8.83;;;7.93;;
6019;SDS011;3038;51.122;6.840;2023-03-07T15:40:39;9.23;;;7.90;;
6019;SDS011;3038;51.122;6.840;2023-03-07T15:45:56;7.93;;;7.20;;
6019;SDS011;3038;51.122;6.840;2023-03-07T15:48:37;10.10;;;8.13;;
6019;SDS011;3038;51.122;6.840;2023-03-07T15:51:12;7.70;;;6.90;;
6019;SDS011;3038;51.122;6.840;2023-03-07T15:53:40;10.37;;;7.37;;
6019;SDS011;3038;51.122;6.840;2023-03-07T15:56:15;8.67;;;6.87;;
6019;SDS011;3038;51.122;6.840;2023-03-07T15:59:16;8.80;;;7.37;;
6019;SDS011;3038;51.122;6.840;2023-03-07T16:01:45;8.40;;;7.40;;
6019;SDS011;3038;51.122;6.840;2023-03-07T16:04:28;11.70;;;8.03;;
6019;SDS011;3038;51.122;6.840;2023-03-07T16:06:59;10.83;;;7.47;;
6019;SDS011;3038;51.122;6.840;2023-03-07T16:09:25;11.23;;;9.17;;
6019;SDS011;3038;51.122;6.840;2023-03-07T16:11:50;41.77;;;25.77;;
6019;SDS011;3038;51.122;6.840;2023-03-07T16:14:23;22.77;;;15.73;;
6019;SDS011;3038;51.122;6.840;2023-03-07T16:16:54;32.83;;;21.17;;
6019;SDS011;3038;51.122;6.840;2023-03-07T16:19:24;30.90;;;20.23;;
6019;SDS011;3038;51.122;6.840;2023-03-07T16:21:50;33.90;;;22.60;;
6019;SDS011;3038;51.122;6.840;2023-03-07T16:24:15;19.17;;;13.43;;
6019;SDS011;3038;51.122;6.840;2023-03-07T16:26:41;17.07;;;12.50;;
6019;SDS011;3038;51.122;6.840;2023-03-07T16:29:14;18.40;;;11.77;;
6019;SDS011;3038;51.122;6.840;2023-03-07T16:31:42;14.43;;;9.77;;
6019;SDS011;3038;51.122;6.840;2023-03-07T16:34:11;13.13;;;10.00;;
6019;SDS011;3038;51.122;6.840;2023-03-07T16:36:42;12.43;;;10.73;;
6019;SDS011;3038;51.122;6.840;2023-03-07T16:39:09;13.97;;;11.90;;
6019;SDS011;3038;51.122;6.840;2023-03-07T16:41:38;11.70;;;9.03;;
6019;SDS011;3038;51.122;6.840;2023-03-07T16:44:13;12.90;;;10.03;;
6019;SDS011;3038;51.122;6.840;2023-03-07T16:46:40;10.83;;;9.07;;
6019;SDS011;3038;51.122;6.840;2023-03-07T16:49:08;12.60;;;10.30;;
6019;SDS011;3038;51.122;6.840;2023-03-07T16:51:38;12.70;;;9.10;;
6019;SDS011;3038;51.122;6.840;2023-03-07T16:54:03;12.50;;;9.37;;
6019;SDS011;3038;51.122;6.840;2023-03-07T16:56:32;11.17;;;8.97;;
6019;SDS011;3038;51.122;6.840;2023-03-07T16:59:01;11.97;;;9.33;;
6019;SDS011;3038;51.122;6.840;2023-03-07T17:01:27;15.37;;;9.80;;
6019;SDS011;3038;51.122;6.840;2023-03-07T17:03:52;15.70;;;11.20;;
6019;SDS011;3038;51.122;6.840;2023-03-07T17:06:20;16.50;;;10.80;;
6019;SDS011;3038;51.122;6.840;2023-03-07T17:08:46;16.47;;;10.80;;
6019;SDS011;3038;51.122;6.840;2023-03-07T17:11:18;17.40;;;13.07;;
6019;SDS011;3038;51.122;6.840;2023-03-07T17:13:46;16.20;;;12.03;;
6019;SDS011;3038;51.122;6.840;2023-03-07T17:16:14;16.07;;;10.37;;
6019;SDS011;3038;51.122;6.840;2023-03-07T17:18:40;14.67;;;9.87;;
6019;SDS011;3038;51.122;6.840;2023-03-07T17:21:07;15.37;;;10.50;;
6019;SDS011;3038;51.122;6.840;2023-03-07T17:23:38;14.00;;;9.77;;
6019;SDS011;3038;51.122;6.840;2023-03-07T17:26:03;15.53;;;12.07;;